sensor_id;sensor_type;location;lat;lon;timestamp;temperature;humidity
53904;DHT22;39812;52.430;16.936;2023-04-03T00:01:00;-0.10;99.90
53904;DHT22;39812;52.430;16.936;2023-04-03T00:03:26;-0.10;99.90
53904;DHT22;39812;52.430;16.936;2023-04-03T00:05:52;-0.10;99.90
53904;DHT22;39812;52.430;16.936;2023-04-03T00:08:18;-0.20;99.90
53904;DHT22;39812;52.430;16.936;2023-04-03T00:10:44;-0.20;99.90
53904;DHT22;39812;52.430;16.936;2023-04-03T00:13:10;-0.20;99.90
53904;DHT22;39812;52.430;16.936;2023-04-03T00:15:37;-0.20;99.90
53904;DHT22;39812;52.430;16.936;2023-04-03T00:18:03;-0.20;99.90
53904;DHT22;39812;52.430;16.936;2023-04-03T00:20:28;-0.30;99.90
53904;DHT22;39812;52.430;16.936;2023-04-03T00:22:54;-0.30;99.90
53904;DHT22;39812;52.430;16.936;2023-04-03T00:25:21;-0.30;99.90
53904;DHT22;39812;52.430;16.936;2023-04-03T00:27:46;-0.30;99.90
53904;DHT22;39812;52.430;16.936;2023-04-03T00:30:14;-0.30;99.90
53904;DHT22;39812;52.430;16.936;2023-04-03T00:32:41;-0.30;99.90
53904;DHT22;39812;52.430;16.936;2023-04-03T00:35:07;-0.30;99.90
53904;DHT22;39812;52.430;16.936;2023-04-03T00:37:33;-0.30;99.90
53904;DHT22;39812;52.430;16.936;2023-04-03T00:40:00;-0.40;99.90
53904;DHT22;39812;52.430;16.936;2023-04-03T00:42:26;-0.40;99.90
53904;DHT22;39812;52.430;16.936;2023-04-03T00:47:23;-0.50;99.90
53904;DHT22;39812;52.430;16.936;2023-04-03T00:49:50;-0.50;99.90
53904;DHT22;39812;52.430;16.936;2023-04-03T00:52:19;-0.50;99.90
53904;DHT22;39812;52.430;16.936;2023-04-03T00:54:47;-0.50;99.90
53904;DHT22;39812;52.430;16.936;2023-04-03T00:57:15;-0.50;99.90
53904;DHT22;39812;52.430;16.936;2023-04-03T00:59:48;-0.60;99.90
53904;DHT22;39812;52.430;16.936;2023-04-03T01:02:16;-0.60;99.90
53904;DHT22;39812;52.430;16.936;2023-04-03T01:04:43;-0.60;99.90
53904;DHT22;39812;52.430;16.936;2023-04-03T01:07:15;-0.60;99.90
53904;DHT22;39812;52.430;16.936;2023-04-03T01:09:42;-0.60;99.90
53904;DHT22;39812;52.430;16.936;2023-04-03T01:12:20;-0.60;99.90
53904;DHT22;39812;52.430;16.936;2023-04-03T01:14:50;-0.70;99.90
53904;DHT22;39812;52.430;16.936;2023-04-03T01:17:38;-0.70;99.90
53904;DHT22;39812;52.430;16.936;2023-04-03T01:25:23;-0.80;99.90
53904;DHT22;39812;52.430;16.936;2023-04-03T01:27:49;-0.80;99.90
53904;DHT22;39812;52.430;16.936;2023-04-03T01:30:18;-0.80;99.90
53904;DHT22;39812;52.430;16.936;2023-04-03T01:32:44;-0.80;99.90
53904;DHT22;39812;52.430;16.936;2023-04-03T01:35:10;-0.70;99.90
53904;DHT22;39812;52.430;16.936;2023-04-03T01:37:36;-0.80;99.90
53904;DHT22;39812;52.430;16.936;2023-04-03T01:40:02;-0.70;99.90
53904;DHT22;39812;52.430;16.936;2023-04-03T01:42:28;-0.80;99.90
53904;DHT22;39812;52.430;16.936;2023-04-03T01:44:54;-0.80;99.90
53904;DHT22;39812;52.430;16.936;2023-04-03T01:47:21;-0.80;99.90
53904;DHT22;39812;52.430;16.936;2023-04-03T01:49:46;-0.80;99.90
53904;DHT22;39812;52.430;16.936;2023-04-03T01:52:12;-0.90;99.90
53904;DHT22;39812;52.430;16.936;2023-04-03T01:54:38;-0.90;99.90
53904;DHT22;39812;52.430;16.936;2023-04-03T01:57:03;-0.90;99.90
53904;DHT22;39812;52.430;16.936;2023-04-03T01:59:29;-0.90;99.90
53904;DHT22;39812;52.430;16.936;2023-04-03T02:01:55;-0.90;99.90
53904;DHT22;39812;52.430;16.936;2023-04-03T02:04:21;-0.90;99.90
53904;DHT22;39812;52.430;16.936;2023-04-03T02:06:46;-1.00;99.90
53904;DHT22;39812;52.430;16.936;2023-04-03T02:09:12;-1.00;99.90
53904;DHT22;39812;52.430;16.936;2023-04-03T02:11:38;-1.00;99.90
53904;DHT22;39812;52.430;16.936;2023-04-03T02:14:03;-1.00;99.90
53904;DHT22;39812;52.430;16.936;2023-04-03T02:16:29;-1.10;99.90
53904;DHT22;39812;52.430;16.936;2023-04-03T02:18:56;-1.10;99.90
53904;DHT22;39812;52.430;16.936;2023-04-03T02:21:22;-1.10;99.90
53904;DHT22;39812;52.430;16.936;2023-04-03T02:23:47;-1.10;99.90
53904;DHT22;39812;52.430;16.936;2023-04-03T02:26:15;-1.10;99.90
53904;DHT22;39812;52.430;16.936;2023-04-03T02:28:41;-1.10;99.90
53904;DHT22;39812;52.430;16.936;2023-04-03T02:31:07;-1.20;99.90
53904;DHT22;39812;52.430;16.936;2023-04-03T02:33:34;-1.20;99.90
53904;DHT22;39812;52.430;16.936;2023-04-03T02:36:03;-1.20;99.90
53904;DHT22;39812;52.430;16.936;2023-04-03T02:38:29;-1.10;99.90
53904;DHT22;39812;52.430;16.936;2023-04-03T02:41:03;-1.10;99.90
53904;DHT22;39812;52.430;16.936;2023-04-03T02:43:29;-1.10;99.90
53904;DHT22;39812;52.430;16.936;2023-04-03T02:45:55;-1.10;99.90
53904;DHT22;39812;52.430;16.936;2023-04-03T02:48:21;-1.20;99.90
53904;DHT22;39812;52.430;16.936;2023-04-03T02:50:47;-1.10;99.90
53904;DHT22;39812;52.430;16.936;2023-04-03T02:53:13;-1.10;99.90
53904;DHT22;39812;52.430;16.936;2023-04-03T02:55:38;-1.10;99.90
53904;DHT22;39812;52.430;16.936;2023-04-03T02:58:04;-1.20;99.90
53904;DHT22;39812;52.430;16.936;2023-04-03T03:00:30;-1.30;99.90
53904;DHT22;39812;52.430;16.936;2023-04-03T03:02:56;-1.30;99.90
53904;DHT22;39812;52.430;16.936;2023-04-03T03:05:21;-1.30;99.90
53904;DHT22;39812;52.430;16.936;2023-04-03T03:07:47;-1.20;99.90
53904;DHT22;39812;52.430;16.936;2023-04-03T03:10:13;-1.20;99.90
53904;DHT22;39812;52.430;16.936;2023-04-03T03:12:40;-1.30;99.90
53904;DHT22;39812;52.430;16.936;2023-04-03T03:15:06;-1.30;99.90
53904;DHT22;39812;52.430;16.936;2023-04-03T03:17:32;-1.40;99.90
53904;DHT22;39812;52.430;16.936;2023-04-03T03:19:58;-1.40;99.90
53904;DHT22;39812;52.430;16.936;2023-04-03T03:22:24;-1.40;99.90
53904;DHT22;39812;52.430;16.936;2023-04-03T03:24:49;-1.40;99.90
53904;DHT22;39812;52.430;16.936;2023-04-03T03:27:15;-1.40;99.90
53904;DHT22;39812;52.430;16.936;2023-04-03T03:29:42;-1.40;99.90
53904;DHT22;39812;52.430;16.936;2023-04-03T03:32:07;-1.40;99.90
53904;DHT22;39812;52.430;16.936;2023-04-03T03:34:33;-1.40;99.90
53904;DHT22;39812;52.430;16.936;2023-04-03T03:36:59;-1.40;99.90
53904;DHT22;39812;52.430;16.936;2023-04-03T03:39:25;-1.50;99.90
53904;DHT22;39812;52.430;16.936;2023-04-03T03:41:50;-1.40;99.90
53904;DHT22;39812;52.430;16.936;2023-04-03T03:44:19;-1.50;99.90
53904;DHT22;39812;52.430;16.936;2023-04-03T03:46:45;-1.60;99.90
53904;DHT22;39812;52.430;16.936;2023-04-03T03:49:11;-1.60;99.90
53904;DHT22;39812;52.430;16.936;2023-04-03T03:51:37;-1.60;99.90
53904;DHT22;39812;52.430;16.936;2023-04-03T03:54:04;-1.50;99.90
53904;DHT22;39812;52.430;16.936;2023-04-03T03:56:30;-1.60;99.90
53904;DHT22;39812;52.430;16.936;2023-04-03T03:58:55;-1.60;99.90
53904;DHT22;39812;52.430;16.936;2023-04-03T04:01:22;-1.70;99.90
53904;DHT22;39812;52.430;16.936;2023-04-03T04:03:48;-1.60;99.90
53904;DHT22;39812;52.430;16.936;2023-04-03T04:06:14;-1.60;99.90
53904;DHT22;39812;52.430;16.936;2023-04-03T04:08:40;-1.60;99.90
53904;DHT22;39812;52.430;16.936;2023-04-03T04:11:06;-1.70;99.90
53904;DHT22;39812;52.430;16.936;2023-04-03T04:13:32;-1.70;99.90
53904;DHT22;39812;52.430;16.936;2023-04-03T04:15:58;-1.60;99.90
53904;DHT22;39812;52.430;16.936;2023-04-03T04:18:24;-1.60;99.90
53904;DHT22;39812;52.430;16.936;2023-04-03T04:20:50;-1.70;99.90
53904;DHT22;39812;52.430;16.936;2023-04-03T04:23:16;-1.60;99.90
53904;DHT22;39812;52.430;16.936;2023-04-03T04:25:45;-1.70;99.90
53904;DHT22;39812;52.430;16.936;2023-04-03T04:28:11;-1.60;99.90
53904;DHT22;39812;52.430;16.936;2023-04-03T04:30:37;-1.70;99.90
53904;DHT22;39812;52.430;16.936;2023-04-03T04:33:03;-1.60;99.90
53904;DHT22;39812;52.430;16.936;2023-04-03T04:35:29;-1.50;99.90
53904;DHT22;39812;52.430;16.936;2023-04-03T04:37:55;-1.40;99.90
53904;DHT22;39812;52.430;16.936;2023-04-03T04:40:20;-1.40;99.90
53904;DHT22;39812;52.430;16.936;2023-04-03T04:42:46;-1.40;99.90
53904;DHT22;39812;52.430;16.936;2023-04-03T04:45:12;-1.40;99.90
53904;DHT22;39812;52.430;16.936;2023-04-03T04:47:37;-1.40;99.90
53904;DHT22;39812;52.430;16.936;2023-04-03T04:50:03;-1.40;99.90
53904;DHT22;39812;52.430;16.936;2023-04-03T04:52:29;-1.40;99.90
53904;DHT22;39812;52.430;16.936;2023-04-03T04:54:55;-1.40;99.90
53904;DHT22;39812;52.430;16.936;2023-04-03T04:57:21;-1.30;99.90
53904;DHT22;39812;52.430;16.936;2023-04-03T04:59:47;-1.40;99.90
53904;DHT22;39812;52.430;16.936;2023-04-03T05:02:12;-1.30;99.90
53904;DHT22;39812;52.430;16.936;2023-04-03T05:04:38;-1.30;99.90
53904;DHT22;39812;52.430;16.936;2023-04-03T05:07:03;-1.20;99.90
53904;DHT22;39812;52.430;16.936;2023-04-03T05:09:29;-1.10;99.90
53904;DHT22;39812;52.430;16.936;2023-04-03T05:11:55;-1.10;99.90
53904;DHT22;39812;52.430;16.936;2023-04-03T05:14:21;-1.00;99.90
53904;DHT22;39812;52.430;16.936;2023-04-03T05:16:47;-1.00;99.90
53904;DHT22;39812;52.430;16.936;2023-04-03T05:19:13;-0.90;99.90
53904;DHT22;39812;52.430;16.936;2023-04-03T05:21:39;-0.90;99.90
53904;DHT22;39812;52.430;16.936;2023-04-03T05:24:05;-0.80;99.90
53904;DHT22;39812;52.430;16.936;2023-04-03T05:26:34;-0.80;99.90
53904;DHT22;39812;52.430;16.936;2023-04-03T05:29:00;-0.70;99.90
53904;DHT22;39812;52.430;16.936;2023-04-03T05:31:25;-0.70;99.90
53904;DHT22;39812;52.430;16.936;2023-04-03T05:33:54;-0.60;99.90
53904;DHT22;39812;52.430;16.936;2023-04-03T05:36:20;-0.50;99.90
53904;DHT22;39812;52.430;16.936;2023-04-03T05:38:46;-0.50;99.90
53904;DHT22;39812;52.430;16.936;2023-04-03T05:41:13;-0.40;99.90
53904;DHT22;39812;52.430;16.936;2023-04-03T05:43:39;-0.40;99.90
53904;DHT22;39812;52.430;16.936;2023-04-03T05:46:12;-0.30;99.90
53904;DHT22;39812;52.430;16.936;2023-04-03T05:48:38;-0.20;99.90
53904;DHT22;39812;52.430;16.936;2023-04-03T05:51:05;-0.10;99.90
53904;DHT22;39812;52.430;16.936;2023-04-03T05:53:33;-0.10;99.90
53904;DHT22;39812;52.430;16.936;2023-04-03T05:56:00;0.00;99.90
53904;DHT22;39812;52.430;16.936;2023-04-03T05:58:25;0.10;99.90
53904;DHT22;39812;52.430;16.936;2023-04-03T06:00:51;0.10;99.90
53904;DHT22;39812;52.430;16.936;2023-04-03T06:03:17;0.20;99.90
53904;DHT22;39812;52.430;16.936;2023-04-03T06:05:43;0.30;99.90
53904;DHT22;39812;52.430;16.936;2023-04-03T06:08:08;0.40;99.90
53904;DHT22;39812;52.430;16.936;2023-04-03T06:10:35;0.40;99.90
53904;DHT22;39812;52.430;16.936;2023-04-03T06:13:01;0.50;99.90
53904;DHT22;39812;52.430;16.936;2023-04-03T06:15:27;0.50;99.90
53904;DHT22;39812;52.430;16.936;2023-04-03T06:17:53;0.60;99.90
53904;DHT22;39812;52.430;16.936;2023-04-03T06:20:19;0.70;99.90
53904;DHT22;39812;52.430;16.936;2023-04-03T06:22:45;0.70;99.90
53904;DHT22;39812;52.430;16.936;2023-04-03T06:25:11;0.80;99.90
53904;DHT22;39812;52.430;16.936;2023-04-03T06:27:38;0.90;99.90
53904;DHT22;39812;52.430;16.936;2023-04-03T06:30:05;1.00;99.90
53904;DHT22;39812;52.430;16.936;2023-04-03T06:32:31;1.10;99.90
53904;DHT22;39812;52.430;16.936;2023-04-03T06:34:57;1.20;99.90
53904;DHT22;39812;52.430;16.936;2023-04-03T06:37:24;1.20;99.90
53904;DHT22;39812;52.430;16.936;2023-04-03T06:39:54;1.20;99.90
53904;DHT22;39812;52.430;16.936;2023-04-03T06:42:20;1.30;99.90
53904;DHT22;39812;52.430;16.936;2023-04-03T06:44:46;1.40;99.90
53904;DHT22;39812;52.430;16.936;2023-04-03T06:47:16;1.50;99.90
53904;DHT22;39812;52.430;16.936;2023-04-03T06:49:42;1.50;99.90
53904;DHT22;39812;52.430;16.936;2023-04-03T06:52:09;1.50;99.90
53904;DHT22;39812;52.430;16.936;2023-04-03T06:54:35;1.60;99.90
53904;DHT22;39812;52.430;16.936;2023-04-03T06:57:01;1.60;99.90
53904;DHT22;39812;52.430;16.936;2023-04-03T06:59:27;1.70;99.90
53904;DHT22;39812;52.430;16.936;2023-04-03T07:01:53;1.70;99.90
53904;DHT22;39812;52.430;16.936;2023-04-03T07:04:19;1.70;99.90
53904;DHT22;39812;52.430;16.936;2023-04-03T07:06:46;1.80;99.90
53904;DHT22;39812;52.430;16.936;2023-04-03T07:09:13;1.80;99.90
53904;DHT22;39812;52.430;16.936;2023-04-03T07:11:39;1.90;99.90
53904;DHT22;39812;52.430;16.936;2023-04-03T07:14:05;1.90;99.90
53904;DHT22;39812;52.430;16.936;2023-04-03T07:16:33;2.00;99.90
53904;DHT22;39812;52.430;16.936;2023-04-03T07:18:59;2.00;99.90
53904;DHT22;39812;52.430;16.936;2023-04-03T07:21:25;2.10;99.50
53904;DHT22;39812;52.430;16.936;2023-04-03T07:23:51;2.40;99.50
53904;DHT22;39812;52.430;16.936;2023-04-03T07:26:17;2.50;98.80
53904;DHT22;39812;52.430;16.936;2023-04-03T07:28:43;2.60;98.50
53904;DHT22;39812;52.430;16.936;2023-04-03T07:31:12;2.80;97.80
53904;DHT22;39812;52.430;16.936;2023-04-03T07:33:42;3.00;96.60
53904;DHT22;39812;52.430;16.936;2023-04-03T07:36:09;3.20;96.50
53904;DHT22;39812;52.430;16.936;2023-04-03T07:38:35;3.60;95.80
53904;DHT22;39812;52.430;16.936;2023-04-03T07:41:02;3.90;95.20
53904;DHT22;39812;52.430;16.936;2023-04-03T07:43:28;4.30;94.40
53904;DHT22;39812;52.430;16.936;2023-04-03T07:45:54;4.70;93.00
53904;DHT22;39812;52.430;16.936;2023-04-03T07:48:21;4.50;91.50
53904;DHT22;39812;52.430;16.936;2023-04-03T07:50:47;4.30;91.50
53904;DHT22;39812;52.430;16.936;2023-04-03T07:53:13;4.10;91.10
53904;DHT22;39812;52.430;16.936;2023-04-03T07:55:39;4.00;91.10
53904;DHT22;39812;52.430;16.936;2023-04-03T07:58:12;4.00;90.70
53904;DHT22;39812;52.430;16.936;2023-04-03T08:00:39;4.00;90.50
53904;DHT22;39812;52.430;16.936;2023-04-03T08:03:05;3.90;89.70
53904;DHT22;39812;52.430;16.936;2023-04-03T08:05:36;3.70;90.00
53904;DHT22;39812;52.430;16.936;2023-04-03T08:08:02;3.50;89.40
53904;DHT22;39812;52.430;16.936;2023-04-03T08:10:30;3.60;89.30
53904;DHT22;39812;52.430;16.936;2023-04-03T08:12:55;3.70;89.50
53904;DHT22;39812;52.430;16.936;2023-04-03T08:15:21;3.70;88.90
53904;DHT22;39812;52.430;16.936;2023-04-03T08:17:47;3.90;88.40
53904;DHT22;39812;52.430;16.936;2023-04-03T08:20:13;4.00;87.90
53904;DHT22;39812;52.430;16.936;2023-04-03T08:22:38;4.00;88.10
53904;DHT22;39812;52.430;16.936;2023-04-03T08:25:04;4.00;88.00
53904;DHT22;39812;52.430;16.936;2023-04-03T08:27:30;4.10;87.00
53904;DHT22;39812;52.430;16.936;2023-04-03T08:29:56;4.10;86.20
53904;DHT22;39812;52.430;16.936;2023-04-03T08:32:22;3.80;87.20
53904;DHT22;39812;52.430;16.936;2023-04-03T08:34:48;3.60;87.50
53904;DHT22;39812;52.430;16.936;2023-04-03T08:37:14;3.60;88.20
53904;DHT22;39812;52.430;16.936;2023-04-03T08:39:42;3.80;88.70
53904;DHT22;39812;52.430;16.936;2023-04-03T08:45:05;4.40;86.20
53904;DHT22;39812;52.430;16.936;2023-04-03T08:47:49;4.50;84.90
53904;DHT22;39812;52.430;16.936;2023-04-03T08:50:20;4.00;85.40
53904;DHT22;39812;52.430;16.936;2023-04-03T08:52:54;4.00;85.70
53904;DHT22;39812;52.430;16.936;2023-04-03T08:55:31;4.20;85.80
53904;DHT22;39812;52.430;16.936;2023-04-03T08:58:07;4.20;85.90
53904;DHT22;39812;52.430;16.936;2023-04-03T09:00:51;4.10;85.00
53904;DHT22;39812;52.430;16.936;2023-04-03T09:03:19;4.30;84.40
53904;DHT22;39812;52.430;16.936;2023-04-03T09:05:50;4.60;83.70
53904;DHT22;39812;52.430;16.936;2023-04-03T09:08:24;4.80;81.50
53904;DHT22;39812;52.430;16.936;2023-04-03T09:11:24;4.70;81.30
53904;DHT22;39812;52.430;16.936;2023-04-03T09:17:09;4.50;81.50
53904;DHT22;39812;52.430;16.936;2023-04-03T09:19:41;4.30;80.80
53904;DHT22;39812;52.430;16.936;2023-04-03T09:22:20;4.30;79.60
53904;DHT22;39812;52.430;16.936;2023-04-03T09:24:59;4.20;80.40
53904;DHT22;39812;52.430;16.936;2023-04-03T09:27:26;4.30;80.30
53904;DHT22;39812;52.430;16.936;2023-04-03T09:29:55;4.30;79.90
53904;DHT22;39812;52.430;16.936;2023-04-03T09:32:29;4.50;79.40
53904;DHT22;39812;52.430;16.936;2023-04-03T09:35:04;4.40;79.00
53904;DHT22;39812;52.430;16.936;2023-04-03T09:37:41;4.60;78.80
53904;DHT22;39812;52.430;16.936;2023-04-03T09:40:32;4.40;78.80
53904;DHT22;39812;52.430;16.936;2023-04-03T09:43:29;4.40;79.20
53904;DHT22;39812;52.430;16.936;2023-04-03T09:48:50;4.40;79.10
53904;DHT22;39812;52.430;16.936;2023-04-03T09:51:16;4.40;79.60
53904;DHT22;39812;52.430;16.936;2023-04-03T09:53:44;4.80;78.30
53904;DHT22;39812;52.430;16.936;2023-04-03T09:58:44;4.80;76.50
53904;DHT22;39812;52.430;16.936;2023-04-03T10:01:32;4.70;76.40
53904;DHT22;39812;52.430;16.936;2023-04-03T10:04:12;4.80;76.00
53904;DHT22;39812;52.430;16.936;2023-04-03T10:06:41;4.90;75.60
53904;DHT22;39812;52.430;16.936;2023-04-03T10:09:28;4.90;74.60
53904;DHT22;39812;52.430;16.936;2023-04-03T10:12:03;4.90;75.20
53904;DHT22;39812;52.430;16.936;2023-04-03T10:14:39;5.20;76.10
53904;DHT22;39812;52.430;16.936;2023-04-03T10:17:14;5.60;76.00
53904;DHT22;39812;52.430;16.936;2023-04-03T10:19:54;5.80;77.00
53904;DHT22;39812;52.430;16.936;2023-04-03T10:22:42;6.00;75.60
53904;DHT22;39812;52.430;16.936;2023-04-03T10:25:18;5.60;75.90
53904;DHT22;39812;52.430;16.936;2023-04-03T10:33:39;5.40;76.00
53904;DHT22;39812;52.430;16.936;2023-04-03T10:36:36;5.50;75.90
53904;DHT22;39812;52.430;16.936;2023-04-03T10:50:11;6.20;73.20
53904;DHT22;39812;52.430;16.936;2023-04-03T10:56:00;6.40;73.00
53904;DHT22;39812;52.430;16.936;2023-04-03T10:58:48;6.60;73.10
53904;DHT22;39812;52.430;16.936;2023-04-03T11:01:20;6.50;73.40
53904;DHT22;39812;52.430;16.936;2023-04-03T11:03:53;6.60;72.50
53904;DHT22;39812;52.430;16.936;2023-04-03T11:06:22;6.30;72.20
53904;DHT22;39812;52.430;16.936;2023-04-03T11:08:53;6.90;71.80
53904;DHT22;39812;52.430;16.936;2023-04-03T11:11:27;7.20;71.50
53904;DHT22;39812;52.430;16.936;2023-04-03T11:13:55;7.20;71.70
53904;DHT22;39812;52.430;16.936;2023-04-03T11:16:30;7.20;71.20
53904;DHT22;39812;52.430;16.936;2023-04-03T11:19:01;7.30;70.80
53904;DHT22;39812;52.430;16.936;2023-04-03T11:21:44;7.50;70.20
53904;DHT22;39812;52.430;16.936;2023-04-03T11:24:24;7.70;69.80
53904;DHT22;39812;52.430;16.936;2023-04-03T11:26:51;7.70;69.10
53904;DHT22;39812;52.430;16.936;2023-04-03T11:29:23;7.60;69.20
53904;DHT22;39812;52.430;16.936;2023-04-03T11:36:59;8.00;68.40
53904;DHT22;39812;52.430;16.936;2023-04-03T11:39:31;8.50;66.80
53904;DHT22;39812;52.430;16.936;2023-04-03T11:42:33;8.00;67.00
53904;DHT22;39812;52.430;16.936;2023-04-03T11:47:49;7.70;68.80
53904;DHT22;39812;52.430;16.936;2023-04-03T11:53:30;10.20;64.70
53904;DHT22;39812;52.430;16.936;2023-04-03T11:56:01;9.20;63.30
53904;DHT22;39812;52.430;16.936;2023-04-03T11:58:33;9.20;64.20
53904;DHT22;39812;52.430;16.936;2023-04-03T12:04:09;14.00;57.30
53904;DHT22;39812;52.430;16.936;2023-04-03T12:09:02;17.50;48.60
53904;DHT22;39812;52.430;16.936;2023-04-03T12:11:32;18.90;47.30
53904;DHT22;39812;52.430;16.936;2023-04-03T12:19:04;15.10;44.30
53904;DHT22;39812;52.430;16.936;2023-04-03T12:35:34;15.40;44.50
53904;DHT22;39812;52.430;16.936;2023-04-03T12:41:08;12.50;51.30
53904;DHT22;39812;52.430;16.936;2023-04-03T12:48:46;11.60;50.10
53904;DHT22;39812;52.430;16.936;2023-04-03T12:53:49;9.30;53.60
53904;DHT22;39812;52.430;16.936;2023-04-03T12:56:25;10.00;53.60
53904;DHT22;39812;52.430;16.936;2023-04-03T12:58:53;14.20;49.80
53904;DHT22;39812;52.430;16.936;2023-04-03T13:01:22;18.30;44.70
53904;DHT22;39812;52.430;16.936;2023-04-03T13:03:57;22.80;40.80
53904;DHT22;39812;52.430;16.936;2023-04-03T13:06:30;20.90;38.60
53904;DHT22;39812;52.430;16.936;2023-04-03T13:08:58;17.30;39.60
53904;DHT22;39812;52.430;16.936;2023-04-03T13:11:28;14.10;44.70
53904;DHT22;39812;52.430;16.936;2023-04-03T13:14:04;11.50;47.60
53904;DHT22;39812;52.430;16.936;2023-04-03T13:16:32;10.50;49.50
53904;DHT22;39812;52.430;16.936;2023-04-03T13:18:58;13.30;48.40
53904;DHT22;39812;52.430;16.936;2023-04-03T13:21:30;13.70;45.80
53904;DHT22;39812;52.430;16.936;2023-04-03T13:23:58;13.40;47.00
53904;DHT22;39812;52.430;16.936;2023-04-03T13:26:28;12.60;48.00
53904;DHT22;39812;52.430;16.936;2023-04-03T13:29:02;11.30;49.70
53904;DHT22;39812;52.430;16.936;2023-04-03T13:31:32;10.50;51.50
53904;DHT22;39812;52.430;16.936;2023-04-03T13:34:11;9.60;53.00
53904;DHT22;39812;52.430;16.936;2023-04-03T13:39:30;8.30;64.00
53904;DHT22;39812;52.430;16.936;2023-04-03T13:41:58;8.30;58.90
53904;DHT22;39812;52.430;16.936;2023-04-03T13:44:33;8.40;59.40
53904;DHT22;39812;52.430;16.936;2023-04-03T13:47:16;8.40;57.60
53904;DHT22;39812;52.430;16.936;2023-04-03T13:49:45;8.00;58.50
53904;DHT22;39812;52.430;16.936;2023-04-03T13:52:27;12.40;52.30
53904;DHT22;39812;52.430;16.936;2023-04-03T13:54:59;16.80;47.20
53904;DHT22;39812;52.430;16.936;2023-04-03T13:57:26;19.70;42.90
53904;DHT22;39812;52.430;16.936;2023-04-03T13:59:54;20.50;41.00
53904;DHT22;39812;52.430;16.936;2023-04-03T14:02:31;18.40;39.90
53904;DHT22;39812;52.430;16.936;2023-04-03T14:04:59;15.00;43.00
53904;DHT22;39812;52.430;16.936;2023-04-03T14:07:28;12.10;47.00
53904;DHT22;39812;52.430;16.936;2023-04-03T14:09:55;13.50;47.30
53904;DHT22;39812;52.430;16.936;2023-04-03T14:12:27;13.40;46.80
53904;DHT22;39812;52.430;16.936;2023-04-03T14:14:55;13.40;47.70
53904;DHT22;39812;52.430;16.936;2023-04-03T14:17:24;13.70;47.10
53904;DHT22;39812;52.430;16.936;2023-04-03T14:19:53;18.10;44.10
53904;DHT22;39812;52.430;16.936;2023-04-03T14:22:22;19.30;41.20
53904;DHT22;39812;52.430;16.936;2023-04-03T14:24:49;15.40;42.30
53904;DHT22;39812;52.430;16.936;2023-04-03T14:27:25;12.90;48.50
53904;DHT22;39812;52.430;16.936;2023-04-03T14:29:52;11.40;48.80
53904;DHT22;39812;52.430;16.936;2023-04-03T14:32:20;10.60;49.60
53904;DHT22;39812;52.430;16.936;2023-04-03T14:34:46;11.70;49.50
53904;DHT22;39812;52.430;16.936;2023-04-03T14:37:15;15.90;46.80
53904;DHT22;39812;52.430;16.936;2023-04-03T14:39:41;14.20;45.10
53904;DHT22;39812;52.430;16.936;2023-04-03T14:42:13;13.00;47.00
53904;DHT22;39812;52.430;16.936;2023-04-03T14:44:38;12.80;48.50
53904;DHT22;39812;52.430;16.936;2023-04-03T14:47:04;17.80;44.90
53904;DHT22;39812;52.430;16.936;2023-04-03T14:49:30;17.00;42.00
53904;DHT22;39812;52.430;16.936;2023-04-03T14:51:57;16.70;42.70
53904;DHT22;39812;52.430;16.936;2023-04-03T14:54:24;15.30;42.60
53904;DHT22;39812;52.430;16.936;2023-04-03T14:56:55;12.40;46.30
53904;DHT22;39812;52.430;16.936;2023-04-03T14:59:21;9.90;50.00
53904;DHT22;39812;52.430;16.936;2023-04-03T15:01:48;8.70;52.40
53904;DHT22;39812;52.430;16.936;2023-04-03T15:04:16;8.50;53.00
53904;DHT22;39812;52.430;16.936;2023-04-03T15:06:43;8.60;52.90
53904;DHT22;39812;52.430;16.936;2023-04-03T15:09:22;8.80;52.50
53904;DHT22;39812;52.430;16.936;2023-04-03T15:11:48;8.40;52.50
53904;DHT22;39812;52.430;16.936;2023-04-03T15:14:14;8.10;53.30
53904;DHT22;39812;52.430;16.936;2023-04-03T15:16:40;8.20;53.90
53904;DHT22;39812;52.430;16.936;2023-04-03T15:19:06;12.90;49.80
53904;DHT22;39812;52.430;16.936;2023-04-03T15:21:31;15.70;45.10
53904;DHT22;39812;52.430;16.936;2023-04-03T15:23:57;17.20;42.40
53904;DHT22;39812;52.430;16.936;2023-04-03T15:26:23;16.60;41.60
53904;DHT22;39812;52.430;16.936;2023-04-03T15:28:49;13.80;44.20
53904;DHT22;39812;52.430;16.936;2023-04-03T15:31:14;11.10;47.90
53904;DHT22;39812;52.430;16.936;2023-04-03T15:33:40;9.40;51.10
53904;DHT22;39812;52.430;16.936;2023-04-03T15:36:06;8.20;53.80
53904;DHT22;39812;52.430;16.936;2023-04-03T15:38:32;7.70;55.30
53904;DHT22;39812;52.430;16.936;2023-04-03T15:40:57;7.30;56.40
53904;DHT22;39812;52.430;16.936;2023-04-03T15:43:23;7.00;57.20
53904;DHT22;39812;52.430;16.936;2023-04-03T15:45:49;6.80;58.00
53904;DHT22;39812;52.430;16.936;2023-04-03T15:48:16;6.70;58.70
53904;DHT22;39812;52.430;16.936;2023-04-03T15:50:42;6.80;59.00
53904;DHT22;39812;52.430;16.936;2023-04-03T15:53:08;7.40;58.50
53904;DHT22;39812;52.430;16.936;2023-04-03T15:55:36;7.40;57.60
53904;DHT22;39812;52.430;16.936;2023-04-03T15:58:02;7.40;57.00
53904;DHT22;39812;52.430;16.936;2023-04-03T16:00:28;7.10;57.10
53904;DHT22;39812;52.430;16.936;2023-04-03T16:03:05;6.80;57.80
53904;DHT22;39812;52.430;16.936;2023-04-03T16:05:31;6.40;58.80
53904;DHT22;39812;52.430;16.936;2023-04-03T16:07:59;6.30;58.80
53904;DHT22;39812;52.430;16.936;2023-04-03T16:10:25;9.00;56.80
53904;DHT22;39812;52.430;16.936;2023-04-03T16:12:51;12.10;52.10
53904;DHT22;39812;52.430;16.936;2023-04-03T16:15:17;11.00;49.80
53904;DHT22;39812;52.430;16.936;2023-04-03T16:17:43;9.50;51.40
53904;DHT22;39812;52.430;16.936;2023-04-03T16:20:11;8.50;52.90
53904;DHT22;39812;52.430;16.936;2023-04-03T16:22:37;7.70;53.70
53904;DHT22;39812;52.430;16.936;2023-04-03T16:25:05;6.70;54.50
53904;DHT22;39812;52.430;16.936;2023-04-03T16:27:30;6.20;54.90
53904;DHT22;39812;52.430;16.936;2023-04-03T16:29:57;5.90;55.40
53904;DHT22;39812;52.430;16.936;2023-04-03T16:32:23;5.70;55.50
53904;DHT22;39812;52.430;16.936;2023-04-03T16:34:51;5.60;56.40
53904;DHT22;39812;52.430;16.936;2023-04-03T16:37:17;5.50;56.90
53904;DHT22;39812;52.430;16.936;2023-04-03T16:39:43;5.40;57.70
53904;DHT22;39812;52.430;16.936;2023-04-03T16:42:09;5.30;58.40
53904;DHT22;39812;52.430;16.936;2023-04-03T16:44:35;5.10;59.10
53904;DHT22;39812;52.430;16.936;2023-04-03T16:47:01;5.10;59.90
53904;DHT22;39812;52.430;16.936;2023-04-03T16:49:27;5.10;60.90
53904;DHT22;39812;52.430;16.936;2023-04-03T16:51:58;4.90;60.40
53904;DHT22;39812;52.430;16.936;2023-04-03T16:54:24;4.80;61.30
53904;DHT22;39812;52.430;16.936;2023-04-03T16:56:50;4.80;61.60
53904;DHT22;39812;52.430;16.936;2023-04-03T16:59:16;4.70;61.90